Time;durP1;ratioP1;P1;durP2;ratioP2;P2;SDS_P1;SDS_P2;PMS_P1;PMS_P2;Temp;Humidity;BMP_temperature;BMP_pressure;BME280_temperature;BME280_humidity;BME280_pressure;Samples;Min_cycle;Max_cycle;Signal;HPM_P1;HPM_P2
2021/06/29 00:02:11;595343.00;1.98;1026.18;12306.00;0.04;21.94;;;;;21.90;6.60;;;;;;2283161;60;1382;-84
2021/06/29 00:04:39;608897.00;2.03;1049.58;0.00;0.00;0.62;;;;;21.70;7.70;;;;;;2276166;61;950;-84
2021/06/29 00:14:30;818401.00;2.73;1413.23;80706.00;0.27;140.26;;;;;21.30;9.70;;;;;;2278805;60;1181;-83
2021/06/29 00:16:56;717549.00;2.39;1237.68;74306.00;0.25;129.20;;;;;21.30;9.40;;;;;;2269999;60;1083;-85
2021/06/29 00:19:25;568045.00;1.89;979.07;7165.00;0.02;13.04;;;;;21.40;9.30;;;;;;2273159;60;1431;-84
2021/06/29 00:21:52;633718.00;2.11;1092.48;30260.00;0.10;53.03;;;;;21.50;9.30;;;;;;2264205;61;982;-84
2021/06/29 00:24:19;543255.00;1.81;936.33;0.00;0.00;0.62;;;;;21.70;9.60;;;;;;2264463;61;1075;-85
2021/06/29 00:29:14;673616.00;2.25;1161.52;15858.00;0.05;28.10;;;;;21.90;6.70;;;;;;2278530;60;1899;-82
2021/06/29 00:31:41;743106.00;2.48;1282.07;86349.00;0.29;150.00;;;;;22.20;6.50;;;;;;2268329;61;1032;-83
2021/06/29 00:34:08;531145.00;1.77;915.46;0.00;0.00;0.62;;;;;22.00;6.30;;;;;;2261922;61;995;-85
2021/06/29 00:39:05;544659.00;1.82;938.75;0.00;0.00;0.62;;;;;21.70;7.00;;;;;;2282787;60;1436;-85
2021/06/29 00:41:32;1554899.00;5.18;2746.85;162305.00;0.54;281.01;;;;;21.80;7.50;;;;;;2274355;60;1103;-84
2021/06/29 00:43:59;117387936.00;391.29;65523764.00;85804.00;0.29;149.06;;;;;22.00;7.20;;;;;;2277495;60;992;-85
2021/06/29 00:48:54;356787.00;1.19;615.53;53928.00;0.18;93.98;;;;;21.40;9.10;;;;;;2279348;60;1982;-83
2021/06/29 00:51:22;1859847.00;6.20;3340.40;91026.00;0.30;158.08;;;;;21.10;9.80;;;;;;2270332;60;973;-84
2021/06/29 00:53:49;576190.00;1.92;993.13;58702.00;0.20;102.23;;;;;21.30;9.90;;;;;;2350266;40;4181;31
2021/06/29 00:56:19;171388.00;0.57;296.66;0.00;0.00;0.62;;;;;21.50;8.20;;;;;;2275033;60;1340;-85
2021/06/29 00:58:48;672281.00;2.24;1159.20;0.00;0.00;0.62;;;;;21.70;7.90;;;;;;2276795;61;1365;-85
2021/06/29 01:01:15;457669.00;1.53;788.97;9249.00;0.03;16.65;;;;;21.90;6.80;;;;;;2270128;61;1000;-85
2021/06/29 01:03:43;175910.00;0.59;304.45;0.00;0.00;0.62;;;;;22.10;6.10;;;;;;2270169;61;1029;-87
2021/06/29 01:06:12;272768.00;0.91;471.10;10045.00;0.03;18.03;;;;;22.20;5.20;;;;;;2273031;61;957;-83
2021/06/29 01:11:07;2761738.00;9.21;5323.77;259562.00;0.87;448.40;;;;;22.40;4.80;;;;;;2432157;40;1928;31
2021/06/29 01:18:30;146094.00;0.49;253.08;0.00;0.00;0.62;;;;;22.60;3.60;;;;;;2279287;60;1223;-83
2021/06/29 01:26:08;87887.00;0.29;152.66;0.00;0.00;0.62;;;;;22.30;3.00;;;;;;2282996;60;1189;-84
2021/06/29 01:28:43;283169.00;0.94;488.99;0.00;0.00;0.62;;;;;22.00;4.50;;;;;;2277306;60;2336;-82
2021/06/29 01:41:02;1259791.00;4.20;2198.70;179971.00;0.60;311.44;;;;;20.90;7.40;;;;;;2282707;60;1423;-84
2021/06/29 01:43:32;384869.00;1.28;663.79;69947.00;0.23;121.67;;;;;20.70;7.80;;;;;;2280694;60;961;-86
2021/06/29 01:55:52;88521.00;0.30;153.75;0.00;0.00;0.62;;;;;21.30;6.50;;;;;;2278764;60;1409;-82
2021/06/29 02:05:44;216448.00;0.72;374.23;66435.00;0.22;115.60;;;;;21.40;7.60;;;;;;2279074;60;1409;-84
2021/06/29 02:10:38;550938.00;1.84;949.58;56258.00;0.19;98.01;;;;;21.70;6.60;;;;;;2278816;60;1969;-86
2021/06/29 02:18:01;600332.00;2.00;1034.79;0.00;0.00;0.62;;;;;22.10;4.90;;;;;;2279092;60;1382;-85
2021/06/29 02:22:57;101781.00;0.34;176.65;0.00;0.00;0.62;;;;;22.20;4.10;;;;;;2279311;60;1406;-86
2021/06/29 02:25:24;197561.00;0.66;341.73;0.00;0.00;0.62;;;;;22.20;3.80;;;;;;2270232;60;1081;-85
2021/06/29 02:30:20;238263.00;0.79;411.76;21843.00;0.07;38.46;;;;;22.20;3.60;;;;;;2271068;61;1904;-84
2021/06/29 02:32:46;108490.00;0.36;188.22;0.00;0.00;0.62;;;;;22.10;3.90;;;;;;2268999;61;1035;-83
2021/06/29 02:35:13;677936.00;2.26;1169.00;0.00;0.00;0.62;;;;;21.80;4.60;;;;;;2260494;61;1157;-85
2021/06/29 02:37:41;406040.00;1.35;700.19;72411.00;0.24;125.93;;;;;22.10;4.60;;;;;;2257283;61;993;-84
2021/06/29 02:40:11;108503.00;0.36;188.25;0.00;0.00;0.62;;;;;22.20;4.70;;;;;;2260389;61;1432;-84
2021/06/29 02:42:39;189359.00;0.63;327.60;0.00;0.00;0.62;;;;;22.30;4.00;;;;;;2260647;61;1101;-84
2021/06/29 02:45:08;736790.00;2.46;1271.10;0.00;0.00;0.62;;;;;22.30;4.30;;;;;;2260838;61;1054;-85
2021/06/29 02:47:36;231469.00;0.77;400.08;86531.00;0.29;150.32;;;;;22.30;2.80;;;;;;2257324;61;1097;-81
2021/06/29 02:50:05;118599456.00;395.33;67575392.00;50716.00;0.17;88.42;;;;;22.30;1.70;;;;;;2253954;61;1994;-84
2021/06/29 02:52:32;34460.00;0.11;60.30;0.00;0.00;0.62;;;;;22.10;2.60;;;;;;2262275;61;1103;-82
2021/06/29 02:54:59;70762.00;0.24;123.08;0.00;0.00;0.62;;;;;22.10;2.90;;;;;;2269149;61;1032;-84
2021/06/29 02:57:29;973925.00;3.25;1686.34;0.00;0.00;0.62;;;;;22.20;3.60;;;;;;2260596;61;1033;-85
2021/06/29 02:59:56;824136.00;2.75;1423.25;150169.00;0.50;260.10;;;;;22.50;2.90;;;;;;2345696;40;2014;31
2021/06/29 03:07:18;56378.00;0.19;98.21;0.00;0.00;0.62;;;;;22.70;1.10;;;;;;2278451;61;1323;-86
2021/06/29 03:09:45;151484.00;0.50;262.36;0.00;0.00;0.62;;;;;22.70;2.00;;;;;;2268377;61;2008;-84
2021/06/29 03:12:12;365754.00;1.22;630.94;0.00;0.00;0.62;;;;;22.80;2.40;;;;;;2268062;61;973;-82
2021/06/29 03:14:42;562099.00;1.87;968.82;85250.00;0.28;148.11;;;;;22.80;2.00;;;;;;2268061;61;1020;-85
2021/06/29 03:22:06;560137.00;1.87;965.44;0.00;0.00;0.62;;;;;22.90;1.40;;;;;;2277674;61;1169;-84
2021/06/29 03:49:12;345806.00;1.15;596.65;67779.00;0.23;117.92;;;;;22.00;3.90;;;;;;2441796;39;3740;31
2021/06/29 04:01:31;890189.00;2.97;1538.90;47530.00;0.16;82.91;;;;;22.20;1.00;;;;;;2420968;40;3594;31
2021/06/29 04:36:01;148683.00;0.50;257.54;4729.00;0.02;8.82;;;;;21.10;1.20;;;;;;2275561;61;1283;-88
2021/06/29 05:12:58;399489.00;1.33;688.93;82102.00;0.27;142.67;;;;;21.30;5.30;;;;;;2279877;61;1299;-88
2021/06/29 05:55:40;1405071.00;4.68;2465.73;37108.00;0.12;64.88;;;;;23.10;1.00;;;;;;2468515;40;3612;31
2021/06/29 07:29:34;768367.00;2.56;1326.01;76748.00;0.26;133.42;;;;;34.70;1.00;;;;;;2525387;40;3426;31
2021/06/29 07:32:06;567315.00;1.89;977.82;82306.00;0.27;143.02;;;;;34.60;1.00;;;;;;2528599;40;4567;31
2021/06/29 07:41:59;563895.00;1.88;971.92;114161.00;0.38;198.01;;;;;34.20;1.00;;;;;;2279202;61;881;-89
2021/06/29 10:17:35;0.00;0.00;0.62;0.00;0.00;0.62;;;;;28.50;1.00;;;;;;2516112;55;3653;31
2021/06/29 11:09:50;6984.00;0.02;12.72;0.00;0.00;0.62;;;;;28.40;1.00;;;;;;2527265;55;3659;31
2021/06/29 11:29:44;78847.00;0.26;137.05;0.00;0.00;0.62;;;;;28.20;1.00;;;;;;2278816;60;1451;-81
2021/06/29 11:32:27;0.00;0.00;0.62;0.00;0.00;0.62;;;;;28.10;1.00;;;;;;2268576;61;981;-86
2021/06/29 11:34:54;112946.00;0.38;195.91;0.00;0.00;0.62;;;;;28.60;1.00;;;;;;2244818;61;1993;-83
2021/06/29 11:37:21;119639.00;0.40;207.46;0.00;0.00;0.62;;;;;28.80;1.00;;;;;;2236258;62;1026;-81
2021/06/29 11:42:24;79395.00;0.26;137.99;0.00;0.00;0.62;;;;;28.50;1.00;;;;;;2282419;60;1385;-84
2021/06/29 11:49:54;63256.00;0.21;110.11;0.00;0.00;0.62;;;;;29.10;1.00;;;;;;2282751;60;1421;-85
2021/06/29 11:52:30;120775.00;0.40;209.42;0.00;0.00;0.62;;;;;29.50;1.00;;;;;;2276892;60;936;-84
2021/06/29 11:55:06;160721.00;0.54;278.28;0.00;0.00;0.62;;;;;29.70;1.00;;;;;;2269083;60;2013;-84
2021/06/29 12:38:26;54953.00;0.18;95.75;0.00;0.00;0.62;;;;;29.80;1.00;;;;;;2278764;60;1342;-84
2021/06/29 12:43:31;0.00;0.00;0.62;0.00;0.00;0.62;;;;;29.50;1.00;;;;;;2282598;60;1377;-89
2021/06/29 12:48:26;215492.00;0.72;372.59;53443.00;0.18;93.14;;;;;28.50;1.00;;;;;;2278948;61;1306;-86
2021/06/29 12:51:04;159749.00;0.53;276.61;0.00;0.00;0.62;;;;;26.50;1.00;;;;;;2276961;60;1333;-83
2021/06/29 12:53:34;0.00;0.00;0.62;0.00;0.00;0.62;;;;;24.80;1.00;;;;;;2269687;60;1912;-84
2021/06/29 13:20:44;329540.00;1.10;568.70;52774.00;0.18;91.98;;;;;19.30;7.00;;;;;;2404380;39;3786;31
2021/06/29 13:25:41;156072.00;0.52;270.27;46325.00;0.15;80.83;;;;;18.50;5.20;;;;;;2278891;60;1415;-82
2021/06/29 13:28:09;0.00;0.00;0.62;0.00;0.00;0.62;;;;;17.90;11.00;;;;;;2332280;39;3683;31
2021/06/29 13:30:36;7668.00;0.03;13.91;0.00;0.00;0.62;;;;;17.60;11.50;;;;;;2281876;60;1416;-83
2021/06/29 13:33:05;356329.00;1.19;614.74;99828.00;0.33;173.27;;;;;17.80;11.20;;;;;;2277063;61;1044;-83
2021/06/29 13:35:31;64989.00;0.22;113.10;0.00;0.00;0.62;;;;;17.90;13.30;;;;;;2276505;61;1935;-81
2021/06/29 13:38:00;251529.00;0.84;434.58;0.00;0.00;0.62;;;;;17.90;11.30;;;;;;2276571;61;1029;-83
2021/06/29 13:40:31;429186.00;1.43;739.99;165602.00;0.55;286.69;;;;;17.90;11.60;;;;;;2277121;61;1463;-81
2021/06/29 13:43:07;361135.00;1.20;623.00;30754.00;0.10;53.89;;;;;17.70;10.40;;;;;;2277095;61;973;-82
2021/06/29 13:45:35;271584.00;0.91;469.07;0.00;0.00;0.62;;;;;17.80;13.00;;;;;;2277062;61;1036;-82
2021/06/29 13:48:03;260460.00;0.87;449.94;52824.00;0.18;92.07;;;;;18.00;11.80;;;;;;2272670;61;1088;-84
2021/06/29 13:50:36;1307169.00;4.36;2285.23;185919.00;0.62;321.68;;;;;18.30;9.10;;;;;;2272813;61;1473;-85
2021/06/29 13:53:06;2186870.00;7.29;4015.36;529152.00;1.76;912.03;;;;;18.90;9.60;;;;;;2265951;61;994;-85
2021/06/29 13:55:49;1166315.00;3.89;2029.43;62080.00;0.21;108.07;;;;;19.30;5.40;;;;;;2264226;61;2011;-85
2021/06/29 13:58:22;592346.00;1.97;1021.01;70479.00;0.23;122.59;;;;;19.30;3.00;;;;;;2264388;61;1049;-84
2021/06/29 14:00:50;215000.00;0.72;371.74;51238.00;0.17;89.33;;;;;19.50;4.60;;;;;;2264251;61;1342;-82
2021/06/29 14:03:20;74365.00;0.25;129.30;0.00;0.00;0.62;;;;;19.50;2.80;;;;;;2256198;61;992;-82
2021/06/29 14:05:49;339631.00;1.13;586.04;0.00;0.00;0.62;;;;;19.80;4.50;;;;;;2255092;61;1027;-82
2021/06/29 14:08:24;869739.00;2.90;1503.03;44056.00;0.15;76.91;;;;;19.70;4.00;;;;;;2260167;61;973;-84
2021/06/29 14:11:04;194306.00;0.65;336.12;75021.00;0.25;130.44;;;;;19.60;4.50;;;;;;2256816;61;1359;-83
2021/06/29 14:16:00;244817.00;0.82;423.04;13333.00;0.04;23.72;;;;;19.50;2.50;;;;;;2278936;60;1975;-83
2021/06/29 14:18:28;885581.00;2.95;1530.81;58261.00;0.19;101.47;;;;;19.60;4.10;;;;;;2277349;61;985;-83
2021/06/29 14:20:56;1269636.00;4.23;2216.64;276004.00;0.92;476.67;;;;;19.80;3.90;;;;;;2277446;61;1337;-82
2021/06/29 14:23:25;372131.00;1.24;641.90;17668.00;0.06;31.23;;;;;20.20;3.40;;;;;;2270178;61;993;-83
2021/06/29 14:25:52;0.00;0.00;0.62;0.00;0.00;0.62;;;;;20.20;1.70;;;;;;2277489;61;918;-83
2021/06/29 14:28:19;677873.00;2.26;1168.89;73085.00;0.24;127.09;;;;;20.10;2.10;;;;;;2270511;61;1028;-84
2021/06/29 14:30:46;737528.00;2.46;1272.38;1726.00;0.01;3.61;;;;;20.10;1.00;;;;;;2267142;61;1471;-84
2021/06/29 14:33:13;277695.00;0.93;479.57;62464.00;0.21;108.74;;;;;20.40;4.10;;;;;;2269210;61;998;-82
2021/06/29 14:35:40;0.00;0.00;0.62;0.00;0.00;0.62;;;;;20.80;3.40;;;;;;2262549;61;1912;-84
2021/06/29 14:38:10;34128.00;0.11;59.73;0.00;0.00;0.62;;;;;20.80;1.00;;;;;;2269240;61;1050;-83
2021/06/29 14:40:38;854777.00;2.85;1476.83;15025.00;0.05;26.65;;;;;21.00;1.00;;;;;;2269016;61;1312;-82
2021/06/29 14:43:08;343507.00;1.15;592.70;96136.00;0.32;166.90;;;;;20.70;1.00;;;;;;2262694;61;1057;-83
2021/06/29 14:45:35;93007.00;0.31;161.50;0.00;0.00;0.62;;;;;21.10;1.00;;;;;;2262622;61;1097;-83
2021/06/29 14:48:02;122236.00;0.41;211.94;0.00;0.00;0.62;;;;;21.00;1.00;;;;;;2259295;61;1139;-83
2021/06/29 14:52:57;1477717.00;4.93;2601.26;198831.00;0.66;343.91;;;;;21.20;1.00;;;;;;2279448;61;1401;-83
2021/06/29 14:55:24;524891.00;1.75;904.69;35562.00;0.12;62.21;;;;;21.10;1.00;;;;;;2277538;60;2027;-83
2021/06/29 15:00:21;0.00;0.00;0.62;0.00;0.00;0.62;;;;;21.00;1.00;;;;;;2279730;60;1409;-83
2021/06/29 15:02:48;0.00;0.00;0.62;0.00;0.00;0.62;;;;;21.00;1.00;;;;;;2274104;60;937;-83
2021/06/29 15:05:16;15328.00;0.05;27.18;0.00;0.00;0.62;;;;;20.40;1.60;;;;;;2268576;61;1044;-84
2021/06/29 15:07:43;24184.00;0.08;42.51;0.00;0.00;0.62;;;;;20.30;1.50;;;;;;2269168;61;1076;-82
2021/06/29 15:10:11;0.00;0.00;0.62;0.00;0.00;0.62;;;;;21.00;1.00;;;;;;2268976;61;1478;-83
2021/06/29 15:12:39;0.00;0.00;0.62;0.00;0.00;0.62;;;;;21.40;1.00;;;;;;2265891;61;1012;-83
2021/06/29 15:15:07;0.00;0.00;0.62;0.00;0.00;0.62;;;;;21.60;1.00;;;;;;2262392;61;1915;-83
2021/06/29 15:17:36;0.00;0.00;0.62;0.00;0.00;0.62;;;;;21.70;1.00;;;;;;2259224;61;1085;-82
2021/06/29 15:20:05;0.00;0.00;0.62;0.00;0.00;0.62;;;;;21.50;1.00;;;;;;2269079;61;1361;-83
2021/06/29 15:22:32;0.00;0.00;0.62;0.00;0.00;0.62;;;;;21.00;1.00;;;;;;2267159;60;1009;-84
2021/06/29 15:24:59;33242.00;0.11;58.19;0.00;0.00;0.62;;;;;20.80;1.00;;;;;;2270798;60;992;-84
2021/06/29 15:27:26;59683.00;0.20;103.93;0.00;0.00;0.62;;;;;21.20;1.00;;;;;;2270732;60;1287;-83
2021/06/29 15:29:54;0.00;0.00;0.62;0.00;0.00;0.62;;;;;21.30;1.00;;;;;;2264532;61;1465;-83
2021/06/29 15:32:22;137324.00;0.46;237.96;21448.00;0.07;37.78;;;;;21.00;1.00;;;;;;2255249;61;1116;-83
2021/06/29 15:34:52;451361.00;1.50;778.12;117198.00;0.39;203.25;;;;;20.80;1.00;;;;;;2264930;61;2003;-82
2021/06/29 15:37:20;1338550.00;4.46;2342.83;77206.00;0.26;134.21;;;;;21.00;1.00;;;;;;2252963;61;1066;-83
2021/06/29 15:39:50;171226.00;0.57;296.38;76796.00;0.26;133.50;;;;;21.10;1.00;;;;;;2243261;61;1323;-83
2021/06/29 15:42:17;42963.00;0.14;75.01;0.00;0.00;0.62;;;;;21.40;1.10;;;;;;2249489;61;1002;-83
2021/06/29 15:44:44;79536.00;0.27;138.24;0.00;0.00;0.62;;;;;21.90;1.00;;;;;;2252189;61;1006;-82
2021/06/29 15:49:39;293102.00;0.98;506.06;42454.00;0.14;74.13;;;;;21.40;1.00;;;;;;2283064;61;1393;-81
2021/06/29 15:52:08;1169242.00;3.90;2034.71;210997.00;0.70;364.85;;;;;21.50;1.00;;;;;;2277757;60;1101;-82
2021/06/29 15:54:34;234748.00;0.78;405.72;66991.00;0.22;116.56;;;;;22.00;1.00;;;;;;2274403;61;1911;-80
2021/06/29 15:57:01;120554.00;0.40;209.04;0.00;0.00;0.62;;;;;22.20;1.00;;;;;;2281503;61;972;-82
2021/06/29 15:59:28;0.00;0.00;0.62;0.00;0.00;0.62;;;;;21.70;1.00;;;;;;2274502;60;1503;-83
2021/06/29 16:01:56;777401.00;2.59;1341.74;41687.00;0.14;72.81;;;;;21.50;1.00;;;;;;2276963;61;1036;-82
2021/06/29 16:04:23;854779.00;2.85;1476.83;126613.00;0.42;219.49;;;;;21.60;1.00;;;;;;2281514;61;912;-83
2021/06/29 16:06:52;508289.00;1.69;876.10;132588.00;0.44;229.79;;;;;21.70;1.00;;;;;;2277596;61;1021;-83
2021/06/29 16:11:48;36076.00;0.12;63.10;0.00;0.00;0.62;;;;;21.40;1.00;;;;;;2293668;55;3752;31
2021/06/29 16:14:16;0.00;0.00;0.62;0.00;0.00;0.62;;;;;21.40;1.00;;;;;;2279422;61;1377;-82
2021/06/29 16:16:46;0.00;0.00;0.62;0.00;0.00;0.62;;;;;21.60;1.00;;;;;;2280947;61;1916;-83
2021/06/29 16:19:14;113340.00;0.38;196.59;43308.00;0.14;75.61;;;;;22.20;1.00;;;;;;2276666;61;1451;-83
2021/06/29 16:21:41;73013.00;0.24;126.97;4598.00;0.02;8.59;;;;;22.40;1.00;;;;;;2273656;61;1006;-83
2021/06/29 16:24:09;192577.00;0.64;333.15;0.00;0.00;0.62;;;;;22.60;1.00;;;;;;2273702;61;1044;-83
2021/06/29 16:26:37;0.00;0.00;0.62;0.00;0.00;0.62;;;;;22.30;1.00;;;;;;2276213;61;1004;-83
2021/06/29 16:29:08;41784.00;0.14;72.97;0.00;0.00;0.62;;;;;22.20;1.00;;;;;;2272805;61;1491;-84
2021/06/29 16:31:35;0.00;0.00;0.62;0.00;0.00;0.62;;;;;22.20;1.00;;;;;;2264563;61;1106;-84
2021/06/29 16:34:03;0.00;0.00;0.62;0.00;0.00;0.62;;;;;22.60;1.00;;;;;;2258327;61;964;-83
2021/06/29 16:36:30;0.00;0.00;0.62;0.00;0.00;0.62;;;;;23.10;1.00;;;;;;2261931;61;1924;-82
2021/06/29 16:38:58;0.00;0.00;0.62;0.00;0.00;0.62;;;;;23.10;1.00;;;;;;2268383;61;1432;-82
2021/06/29 16:41:25;0.00;0.00;0.62;0.00;0.00;0.62;;;;;22.90;1.00;;;;;;2264554;61;960;-85
2021/06/29 16:43:52;0.00;0.00;0.62;0.00;0.00;0.62;;;;;23.00;1.00;;;;;;2256725;61;1018;-82
2021/06/29 16:46:20;0.00;0.00;0.62;0.00;0.00;0.62;;;;;23.20;1.00;;;;;;2253438;61;927;-82
2021/06/29 16:48:47;0.00;0.00;0.62;0.00;0.00;0.62;;;;;23.40;1.00;;;;;;2257394;61;1100;-83
2021/06/29 16:51:17;1035995.00;3.45;1796.33;207517.00;0.69;358.86;;;;;23.80;1.00;;;;;;2257554;61;1100;-83
2021/06/29 16:53:45;1037173.00;3.46;1798.42;105366.00;0.35;182.83;;;;;24.10;1.00;;;;;;2254333;61;1145;-83
2021/06/29 16:56:18;171923.00;0.57;297.58;70014.00;0.23;121.78;;;;;23.70;1.00;;;;;;2257956;61;1908;-83
2021/06/29 16:58:46;0.00;0.00;0.62;0.00;0.00;0.62;;;;;23.60;1.00;;;;;;2266042;61;1076;-84
2021/06/29 17:01:13;2019904.00;6.73;3665.27;210989.00;0.70;364.84;;;;;23.60;1.00;;;;;;2271046;60;1566;-82
2021/06/29 17:03:42;1472716.00;4.91;2591.89;116521.00;0.39;202.08;;;;;23.50;1.00;;;;;;2277730;60;1044;-80
2021/06/29 17:06:09;500719.00;1.67;863.06;37428.00;0.12;65.44;;;;;23.50;1.00;;;;;;2280551;60;1043;-83
2021/06/29 17:08:36;330656.00;1.10;570.61;22308.00;0.07;39.27;;;;;23.20;1.00;;;;;;2277360;60;1042;-83
2021/06/29 17:11:04;309524.00;1.03;534.29;55510.00;0.19;96.71;;;;;23.30;1.00;;;;;;2277604;60;1537;-83
2021/06/29 17:13:31;920868.00;3.07;1592.80;74544.00;0.25;129.61;;;;;23.20;1.00;;;;;;2281196;60;1043;-84
2021/06/29 17:15:58;574874.00;1.92;990.85;62805.00;0.21;109.33;;;;;23.10;1.00;;;;;;2277451;61;2006;-83
2021/06/29 17:18:25;0.00;0.00;0.62;0.00;0.00;0.62;;;;;22.30;1.00;;;;;;2277596;60;1015;-84
2021/06/29 17:20:54;828373.00;2.76;1430.65;99645.00;0.33;172.96;;;;;21.80;1.00;;;;;;2277270;61;1475;-82
2021/06/29 17:23:21;971019.00;3.24;1681.21;59430.00;0.20;103.49;;;;;21.60;1.00;;;;;;2276344;60;1009;-83
2021/06/29 17:25:49;0.00;0.00;0.62;0.00;0.00;0.62;;;;;21.60;1.00;;;;;;2277375;61;1135;-83
2021/06/29 17:28:16;0.00;0.00;0.62;0.00;0.00;0.62;;;;;21.90;1.00;;;;;;2281168;60;1064;-82
2021/06/29 17:30:44;1208716.00;4.03;2105.99;46922.00;0.16;81.86;;;;;22.10;1.00;;;;;;2281041;60;1343;-85
2021/06/29 17:35:39;270063.00;0.90;466.45;73509.00;0.25;127.82;;;;;22.30;1.00;;;;;;2278965;61;1978;-82
2021/06/29 17:38:08;13257.00;0.04;23.59;0.00;0.00;0.62;;;;;22.10;1.00;;;;;;2277221;60;1065;-86
2021/06/29 17:40:38;0.00;0.00;0.62;0.00;0.00;0.62;;;;;21.90;1.00;;;;;;2266650;61;1499;-84
2021/06/29 17:45:35;0.00;0.00;0.62;0.00;0.00;0.62;;;;;21.60;1.00;;;;;;2282749;61;1377;-83
2021/06/29 17:50:30;0.00;0.00;0.62;0.00;0.00;0.62;;;;;21.70;1.00;;;;;;2279436;61;1341;-80
2021/06/29 17:52:57;0.00;0.00;0.62;0.00;0.00;0.62;;;;;22.10;1.00;;;;;;2277158;60;973;-81
2021/06/29 17:55:25;667601.00;2.23;1151.10;79152.00;0.26;137.57;;;;;22.20;1.00;;;;;;2266653;61;1935;-84
2021/06/29 18:00:22;207712.00;0.69;359.20;67229.00;0.22;116.97;;;;;21.60;1.00;;;;;;2283191;60;1413;-85
2021/06/29 18:02:49;134791.00;0.45;233.59;0.00;0.00;0.62;;;;;21.40;1.00;;;;;;2277642;60;1085;-84
2021/06/29 18:05:16;0.00;0.00;0.62;0.00;0.00;0.62;;;;;21.60;1.00;;;;;;2280994;60;1062;-83
2021/06/29 18:10:11;19122.00;0.06;33.75;0.00;0.00;0.62;;;;;21.70;1.00;;;;;;2278802;61;1421;-84
2021/06/29 18:12:40;561220.00;1.87;967.30;50326.00;0.17;87.75;;;;;22.10;1.00;;;;;;2268260;61;1039;-84
2021/06/29 18:15:09;546898.00;1.82;942.61;139834.00;0.47;242.28;;;;;22.20;1.00;;;;;;2268339;61;1992;-85
2021/06/29 18:17:36;272251.00;0.91;470.21;89758.00;0.30;155.89;;;;;22.10;1.00;;;;;;2268427;61;1013;-84
2021/06/29 18:20:05;240246.00;0.80;415.17;71656.00;0.24;124.62;;;;;22.20;1.00;;;;;;2267926;61;1313;-84
2021/06/29 18:27:28;0.00;0.00;0.62;0.00;0.00;0.62;;;;;22.60;1.00;;;;;;2278742;60;1410;-83
2021/06/29 18:29:56;0.00;0.00;0.62;0.00;0.00;0.62;;;;;22.50;1.00;;;;;;2267815;60;1511;-85
2021/06/29 18:32:23;0.00;0.00;0.62;0.00;0.00;0.62;;;;;22.60;1.00;;;;;;2266688;60;1100;-85
2021/06/29 18:34:49;0.00;0.00;0.62;0.00;0.00;0.62;;;;;22.80;1.00;;;;;;2266769;61;1127;-83
2021/06/29 18:37:16;0.00;0.00;0.62;0.00;0.00;0.62;;;;;22.80;1.00;;;;;;2270034;61;2007;-83
2021/06/29 18:42:11;960020.00;3.20;1661.79;72401.00;0.24;125.91;;;;;22.80;1.00;;;;;;2282879;60;1397;-85
2021/06/29 18:44:39;743815.00;2.48;1283.31;146509.00;0.49;253.79;;;;;22.80;1.00;;;;;;2281126;60;1101;-83
2021/06/29 18:47:08;190957.00;0.64;330.36;65653.00;0.22;114.25;;;;;22.80;1.00;;;;;;2274102;60;1044;-86
2021/06/29 18:49:35;166999.00;0.56;289.10;70426.00;0.23;122.50;;;;;23.00;1.00;;;;;;2276341;61;1309;-84
2021/06/29 18:52:05;208561.00;0.70;360.66;76216.00;0.25;132.50;;;;;23.30;1.00;;;;;;2277047;61;1069;-85
2021/06/29 18:54:32;216061.00;0.72;373.57;74077.00;0.25;128.80;;;;;23.40;1.00;;;;;;2276896;61;1003;-84
2021/06/29 18:56:59;416153.00;1.39;717.58;125067.00;0.42;216.82;;;;;23.40;1.00;;;;;;2515669;39;3897;31
2021/06/29 18:59:26;318877.00;1.06;550.37;67340.00;0.22;117.16;;;;;23.50;1.00;;;;;;2278104;60;1410;-84
2021/06/29 19:01:58;226124.00;0.75;390.88;68786.00;0.23;119.66;;;;;23.60;1.00;;;;;;2277515;60;1017;-84
2021/06/29 19:04:27;273205.00;0.91;471.85;67811.00;0.23;117.98;;;;;23.30;1.00;;;;;;2272876;61;938;-85
2021/06/29 19:06:54;190174.00;0.63;329.01;65146.00;0.22;113.37;;;;;23.20;1.00;;;;;;2266290;61;1098;-81
2021/06/29 19:09:22;169795.00;0.57;293.91;68359.00;0.23;118.92;;;;;23.20;1.00;;;;;;2272886;61;1442;-84
2021/06/29 19:11:49;170726.00;0.57;295.52;73818.00;0.25;128.36;;;;;23.00;1.00;;;;;;2266147;61;1006;-84
2021/06/29 19:14:15;169797.00;0.57;293.92;73828.00;0.25;128.37;;;;;22.80;1.00;;;;;;2266243;61;1114;-84
2021/06/29 19:16:42;293367.00;0.98;506.52;64495.00;0.21;112.25;;;;;22.80;1.00;;;;;;2272946;61;2002;-83
2021/06/29 19:19:09;167659.00;0.56;290.23;67714.00;0.23;117.81;;;;;22.80;1.00;;;;;;2272907;61;1278;-83
2021/06/29 19:21:37;213116.00;0.71;368.50;73840.00;0.25;128.40;;;;;22.80;1.00;;;;;;2273499;60;937;-82
2021/06/29 19:26:32;186123.00;0.62;322.03;72621.00;0.24;126.29;;;;;23.30;1.00;;;;;;2275088;61;1418;-82
2021/06/29 19:28:59;167368.00;0.56;289.73;69718.00;0.23;121.27;;;;;23.00;1.00;;;;;;2273395;61;1406;-84
2021/06/29 19:31:26;231440.00;0.77;400.03;67573.00;0.23;117.57;;;;;23.00;1.00;;;;;;2266345;61;1081;-84
2021/06/29 19:33:53;220401.00;0.73;381.03;67221.00;0.22;116.96;;;;;22.90;1.00;;;;;;2272573;61;1028;-84
2021/06/29 19:36:20;169453.00;0.56;293.32;71536.00;0.24;124.41;;;;;22.80;1.00;;;;;;2273622;61;1976;-84
2021/06/29 19:41:17;282568.00;0.94;487.95;69952.00;0.23;121.68;;;;;23.10;1.00;;;;;;2258868;61;1408;-83
2021/06/29 19:43:43;181298.00;0.60;313.72;70028.00;0.23;121.81;;;;;23.20;1.00;;;;;;2257134;61;918;-84
2021/06/29 19:46:10;177545.00;0.59;307.26;68312.00;0.23;118.84;;;;;23.00;1.00;;;;;;2250972;61;1143;-83
2021/06/29 19:48:38;297918.00;0.99;514.34;116692.00;0.39;202.38;;;;;22.90;1.00;;;;;;2266877;61;1123;-83
2021/06/29 19:53:32;174556.00;0.58;302.11;69916.00;0.23;121.62;;;;;23.00;1.00;;;;;;2275909;61;1307;-83
2021/06/29 19:55:59;162880.00;0.54;282.00;64235.00;0.21;111.80;;;;;23.10;1.00;;;;;;2260837;61;1924;-84
2021/06/29 19:58:29;191605.00;0.64;331.47;69149.00;0.23;120.29;;;;;23.10;1.00;;;;;;2252790;61;1037;-83
2021/06/29 20:00:56;235726.00;0.79;407.40;71612.00;0.24;124.55;;;;;22.80;1.00;;;;;;2249676;61;1395;-84
2021/06/29 20:03:23;178781.00;0.60;309.39;68947.00;0.23;119.94;;;;;22.60;1.00;;;;;;2252520;61;1069;-85
2021/06/29 20:05:50;200455.00;0.67;346.71;72644.00;0.24;126.33;;;;;22.40;1.00;;;;;;2253112;61;1137;-83
2021/06/29 20:08:17;169783.00;0.57;293.89;72632.00;0.24;126.31;;;;;22.30;1.00;;;;;;2249068;61;1129;-85
2021/06/29 20:13:12;177552.00;0.59;307.27;67183.00;0.22;116.89;;;;;22.30;1.00;;;;;;2275480;61;1382;-84
2021/06/29 20:15:40;179046.00;0.60;309.85;68773.00;0.23;119.64;;;;;22.40;1.00;;;;;;2266077;61;2002;-82
2021/06/29 20:18:07;163981.00;0.55;283.90;72304.00;0.24;125.74;;;;;22.50;1.00;;;;;;2269629;61;1012;-84
2021/06/29 20:20:34;179950.00;0.60;311.40;65006.00;0.22;113.13;;;;;22.80;1.00;;;;;;2269671;61;1389;-85
2021/06/29 20:23:01;222703.00;0.74;384.99;60632.00;0.20;105.57;;;;;22.80;1.00;;;;;;2266497;61;1021;-83
2021/06/29 20:25:28;184527.00;0.62;319.29;70146.00;0.23;122.01;;;;;22.50;1.00;;;;;;2272912;61;1053;-84
2021/06/29 20:27:55;185302.00;0.62;320.62;75358.00;0.25;131.02;;;;;22.20;1.00;;;;;;2273487;61;974;-83
2021/06/29 20:30:22;165712.00;0.55;286.88;71812.00;0.24;124.89;;;;;22.20;1.00;;;;;;2272993;61;1444;-84
2021/06/29 20:32:52;201255.00;0.67;348.08;75000.00;0.25;130.40;;;;;22.20;1.00;;;;;;2272749;61;988;-84
2021/06/29 20:35:19;249408.00;0.83;430.93;63677.00;0.21;110.83;;;;;22.10;1.00;;;;;;2273002;61;1024;-84
2021/06/29 20:37:49;172793.00;0.58;299.08;71496.00;0.24;124.35;;;;;22.20;1.00;;;;;;2269785;61;1935;-82
2021/06/29 20:40:16;207876.00;0.69;359.48;72702.00;0.24;126.43;;;;;22.30;1.00;;;;;;2266350;61;1470;-84
2021/06/29 20:42:43;171722.00;0.57;297.23;74503.00;0.25;129.54;;;;;22.50;1.00;;;;;;2266420;61;1108;-84
2021/06/29 20:45:12;169636.00;0.57;293.64;71336.00;0.24;124.07;;;;;22.70;1.00;;;;;;2266423;61;1127;-85
2021/06/29 20:47:40;162760.00;0.54;281.79;73810.00;0.25;128.34;;;;;22.80;1.00;;;;;;2273412;61;1001;-82
2021/06/29 20:55:04;184326.00;0.61;318.94;77955.00;0.26;135.50;;;;;22.70;1.00;;;;;;2274734;61;1402;-82